createdAt,value
2019-04-06T00:01:47.443Z,9.06
2019-04-06T00:04:14.799Z,9.11
2019-04-06T00:06:41.941Z,9.08
2019-04-06T00:09:09.387Z,9.04
2019-04-06T00:11:36.772Z,9.09
2019-04-06T00:14:04.272Z,9.00
2019-04-06T00:16:31.390Z,8.95
2019-04-06T00:18:58.646Z,8.96
2019-04-06T00:21:25.787Z,8.99
2019-04-06T00:23:52.973Z,8.96
2019-04-06T00:26:20.233Z,9.00
2019-04-06T00:28:47.569Z,9.01
2019-04-06T00:31:37.152Z,8.97
2019-04-06T00:34:04.511Z,9.01
2019-04-06T00:36:31.805Z,8.99
2019-04-06T00:38:59.089Z,9.00
2019-04-06T00:41:26.722Z,9.00
2019-04-06T00:43:53.997Z,9.03
2019-04-06T00:46:21.170Z,9.06
2019-04-06T00:48:48.434Z,8.97
2019-04-06T00:51:15.610Z,9.02
2019-04-06T00:53:42.844Z,9.05
2019-04-06T00:56:10.204Z,9.09
2019-04-06T00:58:37.550Z,9.08
2019-04-06T01:01:05.005Z,9.12
2019-04-06T01:03:32.381Z,9.11
2019-04-06T01:05:59.623Z,9.11
2019-04-06T01:08:26.885Z,9.14
2019-04-06T01:10:54.065Z,9.13
2019-04-06T01:13:21.335Z,9.01
2019-04-06T01:15:48.854Z,9.00
2019-04-06T01:18:16.265Z,9.06
2019-04-06T01:20:43.546Z,9.01
2019-04-06T01:23:11.007Z,9.02
2019-04-06T01:25:38.258Z,8.98
2019-04-06T01:28:05.400Z,9.01
2019-04-06T01:30:32.545Z,8.99
2019-04-06T01:33:00.000Z,9.00
2019-04-06T01:35:27.275Z,9.05
2019-04-06T01:37:54.432Z,9.13
2019-04-06T01:40:21.745Z,9.13
2019-04-06T01:42:49.165Z,9.12
2019-04-06T01:45:16.539Z,9.07
2019-04-06T01:47:43.705Z,9.12
2019-04-06T01:50:11.260Z,9.13
2019-04-06T01:52:38.508Z,9.13
2019-04-06T01:55:06.052Z,9.06
2019-04-06T01:57:33.308Z,9.06
2019-04-06T02:00:00.506Z,9.08
2019-04-06T02:02:30.119Z,9.07
2019-04-06T02:04:57.529Z,9.00
2019-04-06T02:07:25.003Z,9.00
2019-04-06T02:09:52.318Z,8.97
2019-04-06T02:12:19.503Z,8.87
2019-04-06T02:14:46.862Z,8.78
2019-04-06T02:17:14.268Z,8.76
2019-04-06T02:19:41.533Z,8.69
2019-04-06T02:22:08.649Z,8.73
2019-04-06T02:24:35.900Z,8.65
2019-04-06T02:27:03.368Z,8.70
2019-04-06T02:29:30.647Z,8.69
2019-04-06T02:32:16.325Z,8.65
2019-04-06T02:35:02.113Z,8.61
2019-04-06T02:37:45.994Z,8.58
2019-04-06T02:40:28.944Z,8.65
2019-04-06T02:43:08.806Z,8.61
2019-04-06T02:45:36.057Z,8.63
2019-04-06T02:48:03.658Z,8.67
2019-04-06T02:50:30.973Z,8.64
2019-04-06T02:52:58.374Z,8.65
2019-04-06T02:55:25.621Z,8.64
2019-04-06T02:57:52.767Z,8.60
2019-04-06T03:00:20.130Z,8.64
2019-04-06T03:02:47.489Z,8.69
2019-04-06T03:05:15.070Z,8.72
2019-04-06T03:07:42.406Z,8.65
2019-04-06T03:10:10.384Z,8.65
2019-04-06T03:12:38.190Z,8.58
2019-04-06T03:15:06.719Z,8.62
2019-04-06T03:17:33.972Z,8.59
2019-04-06T03:20:01.279Z,8.69
2019-04-06T03:22:28.678Z,8.62
2019-04-06T03:24:55.831Z,8.60
2019-04-06T03:27:23.268Z,8.55
2019-04-06T03:29:58.255Z,8.52
2019-04-06T03:32:19.893Z,8.42
2019-04-06T03:34:47.164Z,8.22
2019-04-06T03:37:14.412Z,8.17
2019-04-06T03:39:41.563Z,8.10
2019-04-06T03:42:10.790Z,8.07
2019-04-06T03:44:37.795Z,8.02
2019-04-06T03:47:05.057Z,7.90
2019-04-06T03:49:32.316Z,7.95
2019-04-06T03:52:00.900Z,7.89
2019-04-06T03:54:28.053Z,7.71
2019-04-06T03:56:55.333Z,7.62
2019-04-06T03:59:22.751Z,7.50
2019-04-06T04:01:49.938Z,7.43
2019-04-06T04:04:17.106Z,7.29
2019-04-06T04:06:44.468Z,7.26
2019-04-06T04:09:11.917Z,7.26
2019-04-06T04:11:39.136Z,7.09
2019-04-06T04:14:06.454Z,7.10
2019-04-06T04:16:33.645Z,7.02
2019-04-06T04:19:00.832Z,6.90
2019-04-06T04:21:28.336Z,6.83
2019-04-06T04:23:56.666Z,7.04
2019-04-06T04:26:23.927Z,6.79
2019-04-06T04:28:51.167Z,6.68
2019-04-06T04:31:18.623Z,6.59
2019-04-06T04:33:45.989Z,6.54
2019-04-06T04:36:13.494Z,6.54
2019-04-06T04:38:40.776Z,6.45
2019-04-06T04:41:08.019Z,6.44
2019-04-06T04:43:35.181Z,6.32
2019-04-06T04:46:02.557Z,6.23
2019-04-06T04:48:30.100Z,6.12
2019-04-06T04:50:57.552Z,6.21
2019-04-06T04:53:24.716Z,6.17
2019-04-06T04:55:52.233Z,6.18
2019-04-06T04:58:19.789Z,6.11
2019-04-06T05:00:47.054Z,6.13
2019-04-06T05:03:14.525Z,6.12
2019-04-06T05:05:41.855Z,6.28
2019-04-06T05:08:09.037Z,6.27
2019-04-06T05:10:36.450Z,6.21
2019-04-06T05:13:03.841Z,6.23
2019-04-06T05:16:19.343Z,6.25
2019-04-06T05:18:47.022Z,6.25
2019-04-06T05:21:14.403Z,6.27
2019-04-06T05:23:41.566Z,6.33
2019-04-06T05:26:09.136Z,6.38
2019-04-06T05:28:36.297Z,6.42
2019-04-06T05:31:04.560Z,6.45
2019-04-06T05:33:31.976Z,6.54
2019-04-06T05:35:59.587Z,6.67
2019-04-06T05:38:27.854Z,6.76
2019-04-06T05:40:55.239Z,6.84
2019-04-06T05:43:22.688Z,6.95
2019-04-06T05:45:49.994Z,7.02
2019-04-06T05:48:17.207Z,7.09
2019-04-06T05:50:44.788Z,7.20
2019-04-06T05:53:12.225Z,7.31
2019-04-06T05:55:39.399Z,7.37
2019-04-06T05:58:09.841Z,7.51
2019-04-06T06:00:39.935Z,7.60
2019-04-06T06:03:05.566Z,7.62
2019-04-06T06:05:33.032Z,7.65
2019-04-06T06:08:00.159Z,7.74
2019-04-06T06:10:27.351Z,7.88
2019-04-06T06:12:54.517Z,8.02
2019-04-06T06:15:21.775Z,8.06
2019-04-06T06:17:48.920Z,8.12
2019-04-06T06:20:16.988Z,8.18
2019-04-06T06:22:44.315Z,8.33
2019-04-06T06:25:11.787Z,8.50
2019-04-06T06:27:39.181Z,8.55
2019-04-06T06:30:07.793Z,8.65
2019-04-06T06:32:35.214Z,8.76
2019-04-06T06:35:03.248Z,8.83
2019-04-06T06:37:30.636Z,8.93
2019-04-06T06:39:57.921Z,9.07
2019-04-06T06:42:25.050Z,9.17
2019-04-06T06:44:52.212Z,9.25
2019-04-06T06:47:19.944Z,9.42
2019-04-06T06:49:48.763Z,9.54
2019-04-06T06:52:16.157Z,9.71
2019-04-06T06:54:43.629Z,9.80
2019-04-06T06:57:10.993Z,9.85
2019-04-06T06:59:38.265Z,9.98
2019-04-06T07:02:05.551Z,10.07
2019-04-06T07:04:32.821Z,10.20
2019-04-06T07:07:00.065Z,10.30
2019-04-06T07:09:27.574Z,10.39
2019-04-06T07:11:54.875Z,10.55
2019-04-06T07:14:22.047Z,10.74
2019-04-06T07:16:49.451Z,11.12
2019-04-06T07:19:16.594Z,11.46
2019-04-06T07:21:43.929Z,11.69
2019-04-06T07:24:11.219Z,11.89
2019-04-06T07:26:41.050Z,12.29
2019-04-06T07:29:07.731Z,12.44
2019-04-06T07:31:35.189Z,12.45
2019-04-06T07:34:03.156Z,12.45
2019-04-06T07:36:30.427Z,12.68
2019-04-06T07:38:58.083Z,12.79
2019-04-06T07:41:25.398Z,12.89
2019-04-06T07:43:52.795Z,13.12
2019-04-06T07:46:20.127Z,13.41
2019-04-06T07:48:47.610Z,13.63
2019-04-06T07:51:15.076Z,14.02
2019-04-06T07:53:42.317Z,14.32
2019-04-06T07:56:10.961Z,14.65
2019-04-06T07:58:47.863Z,14.94
2019-04-06T08:01:07.380Z,15.15
2019-04-06T08:03:34.552Z,15.60
2019-04-06T08:06:01.918Z,15.61
2019-04-06T08:08:29.585Z,15.89
2019-04-06T08:10:57.111Z,16.24
2019-04-06T08:13:24.410Z,16.44
2019-04-06T08:15:51.754Z,16.69
2019-04-06T08:18:19.066Z,16.55
2019-04-06T08:20:46.257Z,17.07
2019-04-06T08:23:13.641Z,16.92
2019-04-06T08:25:41.401Z,17.19
2019-04-06T08:28:08.802Z,17.25
2019-04-06T08:30:44.717Z,17.40
2019-04-06T08:33:05.115Z,17.80
2019-04-06T08:35:32.532Z,18.16
2019-04-06T08:37:59.791Z,18.35
2019-04-06T08:40:26.939Z,18.69
2019-04-06T08:42:54.521Z,18.95
2019-04-06T08:45:22.272Z,19.21
2019-04-06T08:47:49.687Z,19.55
2019-04-06T08:50:17.218Z,19.88
2019-04-06T08:52:44.579Z,20.15
2019-04-06T08:55:11.918Z,20.43
2019-04-06T08:57:39.196Z,20.54
2019-04-06T09:00:07.256Z,20.68
2019-04-06T09:02:34.677Z,21.09
2019-04-06T09:05:02.229Z,21.11
2019-04-06T09:07:29.621Z,21.36
2019-04-06T09:09:56.971Z,21.57
2019-04-06T09:12:24.414Z,21.79
2019-04-06T09:14:52.234Z,22.09
2019-04-06T09:17:20.369Z,21.97
2019-04-06T09:19:47.537Z,21.89
2019-04-06T09:22:20.774Z,22.58
2019-04-06T09:24:48.146Z,23.19
2019-04-06T09:27:15.765Z,23.25
2019-04-06T09:29:43.113Z,23.61
2019-04-06T09:32:10.386Z,24.06
2019-04-06T09:34:37.694Z,24.41
2019-04-06T09:37:04.977Z,24.23
2019-04-06T09:39:32.570Z,24.56
2019-04-06T09:42:00.178Z,24.53
2019-04-06T09:44:48.183Z,24.09
2019-04-06T09:47:22.956Z,24.28
2019-04-06T09:49:57.845Z,24.10
2019-04-06T09:52:44.855Z,23.27
2019-04-06T09:55:23.944Z,23.62
2019-04-06T09:58:09.626Z,23.39
2019-04-06T10:00:52.841Z,23.47
2019-04-06T10:03:51.708Z,23.31
2019-04-06T10:06:38.638Z,23.37
2019-04-06T10:09:18.154Z,23.40
2019-04-06T10:12:17.010Z,23.19
2019-04-06T10:14:57.587Z,23.23
2019-04-06T10:17:59.649Z,23.49
2019-04-06T10:20:43.198Z,23.48
2019-04-06T10:23:18.018Z,23.48
2019-04-06T10:25:53.443Z,23.28
2019-04-06T10:28:37.599Z,23.57
2019-04-06T10:31:12.540Z,23.46
2019-04-06T10:33:59.496Z,23.36
2019-04-06T10:36:45.075Z,23.52
2019-04-06T10:39:20.619Z,23.36
2019-04-06T10:42:06.090Z,23.29
2019-04-06T10:44:40.082Z,23.42
2019-04-06T10:47:30.110Z,23.40
2019-04-06T10:50:15.781Z,23.65
2019-04-06T10:53:16.553Z,23.76
2019-04-06T10:56:12.717Z,23.76
2019-04-06T10:58:50.549Z,23.50
2019-04-06T11:01:36.380Z,23.90
2019-04-06T11:04:18.351Z,23.84
2019-04-06T11:07:01.259Z,24.13
2019-04-06T11:09:51.031Z,24.64
2019-04-06T11:12:36.400Z,24.83
2019-04-06T11:15:22.965Z,25.15
2019-04-06T11:18:18.659Z,25.54
2019-04-06T11:20:53.506Z,25.73
2019-04-06T11:23:29.459Z,26.41
2019-04-06T11:26:14.639Z,26.68
2019-04-06T11:29:01.551Z,26.71
2019-04-06T11:31:40.388Z,27.01
2019-04-06T11:34:26.079Z,26.97
2019-04-06T11:37:09.792Z,27.17
2019-04-06T11:39:47.670Z,26.98
2019-04-06T11:42:37.198Z,27.17
2019-04-06T11:45:26.709Z,27.28
2019-04-06T11:48:19.321Z,27.06
2019-04-06T11:51:04.987Z,26.92
2019-04-06T11:53:52.116Z,26.62
2019-04-06T11:56:46.040Z,26.57
2019-04-06T11:59:20.735Z,26.30
2019-04-06T12:01:56.784Z,26.29
2019-04-06T12:04:30.391Z,25.95
2019-04-06T12:07:26.170Z,25.89
2019-04-06T12:10:07.907Z,25.85
2019-04-06T12:13:04.030Z,25.45
2019-04-06T12:15:36.170Z,25.20
2019-04-06T12:18:20.657Z,25.10
2019-04-06T12:21:01.187Z,25.36
2019-04-06T12:23:52.803Z,24.99
2019-04-06T12:26:28.046Z,25.09
2019-04-06T12:29:21.208Z,25.18
2019-04-06T12:32:03.590Z,24.13
2019-04-06T12:34:56.571Z,24.56
2019-04-06T12:37:38.003Z,24.59
2019-04-06T12:40:28.715Z,24.32
2019-04-06T12:43:27.026Z,24.52
2019-04-06T12:46:26.209Z,24.72
2019-04-06T12:49:11.613Z,24.46
2019-04-06T12:52:07.324Z,24.19
2019-04-06T12:54:54.647Z,24.02
2019-04-06T12:57:39.822Z,23.84
2019-04-06T13:00:26.110Z,23.34
2019-04-06T13:03:04.950Z,23.33
2019-04-06T13:06:06.821Z,23.77
2019-04-06T13:08:56.764Z,23.90
2019-04-06T13:11:43.576Z,24.39
2019-04-06T13:14:19.361Z,24.39
2019-04-06T13:17:05.375Z,24.19
2019-04-06T13:20:01.204Z,24.35
2019-04-06T13:22:50.836Z,24.27
2019-04-06T13:25:43.387Z,23.94
2019-04-06T13:28:32.385Z,23.55
2019-04-06T13:31:19.185Z,23.60
2019-04-06T13:34:10.180Z,23.65
2019-04-06T13:36:47.575Z,23.24
2019-04-06T13:39:34.552Z,23.02
2019-04-06T13:42:24.500Z,23.17
2019-04-06T13:45:23.647Z,22.82
2019-04-06T13:48:13.155Z,23.02
2019-04-06T13:50:46.217Z,23.17
2019-04-06T13:53:20.580Z,22.95
2019-04-06T13:55:58.026Z,22.64
2019-04-06T13:58:47.829Z,22.91
2019-04-06T14:01:40.742Z,22.71
2019-04-06T14:04:30.813Z,22.81
2019-04-06T14:07:04.823Z,22.69
2019-04-06T14:09:40.473Z,22.26
2019-04-06T14:12:35.058Z,22.27
2019-04-06T14:15:24.838Z,22.49
2019-04-06T14:18:02.522Z,22.53
2019-04-06T14:20:37.147Z,22.65
2019-04-06T14:23:21.204Z,22.73
2019-04-06T14:26:07.196Z,22.78
2019-04-06T14:28:52.912Z,22.73
2019-04-06T14:31:38.530Z,22.88
2019-04-06T14:34:19.717Z,22.95
2019-04-06T14:36:59.773Z,23.01
2019-04-06T14:39:52.966Z,22.98
2019-04-06T14:42:31.529Z,23.12
2019-04-06T14:45:05.130Z,23.19
2019-04-06T14:48:10.513Z,23.12
2019-04-06T14:50:56.145Z,22.85
2019-04-06T14:53:32.676Z,22.90
2019-04-06T14:56:28.801Z,23.05
2019-04-06T14:59:06.914Z,23.10
2019-04-06T15:01:57.922Z,23.05
2019-04-06T15:04:37.176Z,23.01
2019-04-06T15:07:24.231Z,22.99
2019-04-06T15:10:17.282Z,23.10
2019-04-06T15:13:02.583Z,23.15
2019-04-06T15:15:48.109Z,23.21
2019-04-06T15:18:21.967Z,23.13
2019-04-06T15:21:08.677Z,23.11
2019-04-06T15:23:54.064Z,23.20
2019-04-06T15:26:39.505Z,23.08
2019-04-06T15:29:16.145Z,23.04
2019-04-06T15:31:57.622Z,22.80
2019-04-06T15:34:40.582Z,22.75
2019-04-06T15:37:15.883Z,22.69
2019-04-06T15:40:21.536Z,22.57
2019-04-06T15:43:04.125Z,22.42
2019-04-06T15:45:52.388Z,22.33
2019-04-06T15:48:38.397Z,22.31
2019-04-06T15:51:27.872Z,22.06
2019-04-06T15:54:10.262Z,21.88
2019-04-06T15:57:15.560Z,21.78
2019-04-06T16:00:08.695Z,21.75
2019-04-06T16:02:54.662Z,21.63
2019-04-06T16:05:42.450Z,21.63
2019-04-06T16:08:29.712Z,21.38
2019-04-06T16:11:22.677Z,21.38
2019-04-06T16:13:58.154Z,21.39
2019-04-06T16:17:00.209Z,21.35
2019-04-06T16:19:43.118Z,21.19
2019-04-06T16:22:22.061Z,21.10
2019-04-06T16:24:57.687Z,20.88
2019-04-06T16:27:38.779Z,20.84
2019-04-06T16:30:15.343Z,20.77
2019-04-06T16:32:58.470Z,20.61
2019-04-06T16:35:57.406Z,20.57
2019-04-06T16:38:40.267Z,20.60
2019-04-06T16:41:35.925Z,20.56
2019-04-06T16:44:22.967Z,20.40
2019-04-06T16:47:08.447Z,20.36
2019-04-06T16:49:58.008Z,20.19
2019-04-06T16:52:36.664Z,20.18
2019-04-06T16:55:14.646Z,20.06
2019-04-06T16:58:00.448Z,19.96
2019-04-06T17:00:51.012Z,19.87
2019-04-06T17:03:40.855Z,19.80
2019-04-06T17:06:19.809Z,19.75
2019-04-06T17:09:00.322Z,19.52
2019-04-06T17:11:46.260Z,19.53
2019-04-06T17:14:36.041Z,19.55
2019-04-06T17:17:32.555Z,19.46
2019-04-06T17:20:19.507Z,19.35
2019-04-06T17:23:00.172Z,19.32
2019-04-06T17:25:59.282Z,19.19
2019-04-06T17:28:45.771Z,19.04
2019-04-06T17:31:44.722Z,18.95
2019-04-06T17:34:53.446Z,18.82
2019-04-06T17:37:34.005Z,18.63
2019-04-06T17:40:29.913Z,18.45
2019-04-06T17:43:18.938Z,18.37
2019-04-06T17:46:08.468Z,18.31
2019-04-06T17:48:55.658Z,18.16
2019-04-06T17:51:41.345Z,18.07
2019-04-06T17:54:28.269Z,17.94
2019-04-06T17:57:20.414Z,17.82
2019-04-06T18:00:00.696Z,17.67
2019-04-06T18:02:50.234Z,17.51
2019-04-06T18:05:36.388Z,17.40
2019-04-06T18:08:26.666Z,17.31
2019-04-06T18:11:16.637Z,17.02
2019-04-06T18:13:50.064Z,16.96
2019-04-06T18:16:20.180Z,16.67
2019-04-06T18:18:47.651Z,16.42
2019-04-06T18:21:15.410Z,16.42
2019-04-06T18:23:42.920Z,16.34
2019-04-06T18:26:10.309Z,16.08
2019-04-06T18:28:37.806Z,16.11
2019-04-06T18:31:30.613Z,15.92
2019-04-06T18:33:58.036Z,15.79
2019-04-06T18:36:33.695Z,15.76
2019-04-06T18:39:05.079Z,15.63
2019-04-06T18:41:32.303Z,15.48
2019-04-06T18:43:59.450Z,15.60
2019-04-06T18:46:27.390Z,15.47
2019-04-06T18:48:55.125Z,15.38
2019-04-06T18:51:22.518Z,15.33
2019-04-06T18:53:50.208Z,15.27
2019-04-06T18:56:17.719Z,15.19
2019-04-06T18:58:44.882Z,15.08
2019-04-06T19:01:12.957Z,15.04
2019-04-06T19:03:40.546Z,15.01
2019-04-06T19:06:07.923Z,14.90
2019-04-06T19:08:36.501Z,14.91
2019-04-06T19:11:04.027Z,14.83
2019-04-06T19:13:31.314Z,14.79
2019-04-06T19:15:58.494Z,14.71
2019-04-06T19:18:25.631Z,14.67
2019-04-06T19:20:53.707Z,14.65
2019-04-06T19:23:21.350Z,14.54
2019-04-06T19:25:48.766Z,14.70
2019-04-06T19:28:16.766Z,14.56
2019-04-06T19:30:44.520Z,14.54
2019-04-06T19:33:22.681Z,14.46
2019-04-06T19:35:40.891Z,14.40
2019-04-06T19:38:08.644Z,14.30
2019-04-06T19:40:35.967Z,14.11
2019-04-06T19:43:03.428Z,14.07
2019-04-06T19:45:30.577Z,14.07
2019-04-06T19:47:58.364Z,14.07
2019-04-06T19:50:25.970Z,13.98
2019-04-06T19:52:53.681Z,14.10
2019-04-06T19:55:21.353Z,14.07
2019-04-06T19:57:48.751Z,14.18
2019-04-06T20:00:17.074Z,14.21
2019-04-06T20:02:44.738Z,14.18
2019-04-06T20:05:12.392Z,14.04
2019-04-06T20:07:39.894Z,13.94
2019-04-06T20:10:08.471Z,14.04
2019-04-06T20:12:36.114Z,13.97
2019-04-06T20:15:06.256Z,14.00
2019-04-06T20:17:33.731Z,13.76
2019-04-06T20:20:01.088Z,13.77
2019-04-06T20:22:28.447Z,13.76
2019-04-06T20:24:55.615Z,13.73
2019-04-06T20:27:23.266Z,13.59
2019-04-06T20:29:50.929Z,13.71
2019-04-06T20:32:18.717Z,13.67
2019-04-06T20:34:46.122Z,13.54
2019-04-06T20:37:13.835Z,13.58
2019-04-06T20:39:41.472Z,13.69
2019-04-06T20:42:08.916Z,13.51
2019-04-06T20:44:36.080Z,13.51
2019-04-06T20:47:04.173Z,13.60
2019-04-06T20:49:32.002Z,13.36
2019-04-06T20:51:59.665Z,13.42
2019-04-06T20:54:27.275Z,13.41
2019-04-06T20:56:57.975Z,13.21
2019-04-06T20:59:24.097Z,13.30
2019-04-06T21:01:51.426Z,13.18
2019-04-06T21:04:18.794Z,13.11
2019-04-06T21:06:46.039Z,13.08
2019-04-06T21:09:14.106Z,12.98
2019-04-06T21:11:41.490Z,12.99
2019-04-06T21:14:08.986Z,13.00
2019-04-06T21:16:36.400Z,12.90
2019-04-06T21:19:03.839Z,12.76
2019-04-06T21:21:31.459Z,12.62
2019-04-06T21:23:59.398Z,12.69
2019-04-06T21:26:26.876Z,12.78
2019-04-06T21:28:54.232Z,12.78
2019-04-06T21:31:21.701Z,12.66
2019-04-06T21:33:49.203Z,12.51
2019-04-06T21:36:17.451Z,12.50
2019-04-06T21:38:44.678Z,12.40
2019-04-06T21:41:11.921Z,12.34
2019-04-06T21:43:39.086Z,12.32
2019-04-06T21:46:06.719Z,12.32
2019-04-06T21:48:33.909Z,12.19
2019-04-06T21:51:01.711Z,12.10
2019-04-06T21:53:29.191Z,11.98
2019-04-06T21:56:03.374Z,11.98
2019-04-06T21:58:25.783Z,11.86
2019-04-06T22:00:55.428Z,11.77
2019-04-06T22:03:23.415Z,11.69
2019-04-06T22:05:51.072Z,11.55
2019-04-06T22:08:18.791Z,11.63
2019-04-06T22:10:47.330Z,11.58
2019-04-06T22:13:14.909Z,11.79
2019-04-06T22:15:42.257Z,11.70
2019-04-06T22:18:09.612Z,11.45
2019-04-06T22:20:36.959Z,11.57
2019-04-06T22:23:04.323Z,11.58
2019-04-06T22:25:31.505Z,11.43
2019-04-06T22:27:58.802Z,11.45
2019-04-06T22:30:26.196Z,11.45
2019-04-06T22:32:54.983Z,11.29
2019-04-06T22:35:31.154Z,11.26
2019-04-06T22:37:58.742Z,11.11
2019-04-06T22:40:26.049Z,11.19
2019-04-06T22:42:53.789Z,11.13
2019-04-06T22:45:22.010Z,11.06
2019-04-06T22:47:49.157Z,10.96
2019-04-06T22:50:16.715Z,10.85
2019-04-06T22:52:44.710Z,10.75
2019-04-06T22:55:12.858Z,10.89
2019-04-06T22:57:40.820Z,10.72
2019-04-06T23:00:10.330Z,10.69
2019-04-06T23:02:47.628Z,10.78
2019-04-06T23:05:28.873Z,10.70
2019-04-06T23:07:56.520Z,10.62
2019-04-06T23:10:23.821Z,10.41
2019-04-06T23:12:51.043Z,10.38
2019-04-06T23:15:18.315Z,10.48
2019-04-06T23:17:45.468Z,10.53
2019-04-06T23:20:12.926Z,10.34
2019-04-06T23:22:40.088Z,10.22
2019-04-06T23:25:07.561Z,10.27
2019-04-06T23:27:35.351Z,10.18
2019-04-06T23:30:04.494Z,10.17
2019-04-06T23:32:31.930Z,10.22
2019-04-06T23:35:02.057Z,10.24
2019-04-06T23:37:28.765Z,10.06
2019-04-06T23:39:56.208Z,9.94
2019-04-06T23:42:23.958Z,9.90
2019-04-06T23:44:51.745Z,9.96
2019-04-06T23:47:19.089Z,10.16
2019-04-06T23:49:46.450Z,10.08
2019-04-06T23:52:13.732Z,10.00
2019-04-06T23:54:40.842Z,9.91
2019-04-06T23:57:08.091Z,9.85
2019-04-06T23:59:35.281Z,9.82
